sensor_id;sensor_type;location;lat;lon;timestamp;pressure;altitude;pressure_sealevel;temperature;humidity
8366;BME280;4220;42.502;24.188;2022-11-15T00:02:08;95895.44;;;4.14;100.00
8366;BME280;4220;42.502;24.188;2022-11-15T00:04:36;95891.69;;;4.24;100.00
8366;BME280;4220;42.502;24.188;2022-11-15T00:07:03;95891.69;;;4.24;100.00
8366;BME280;4220;42.502;24.188;2022-11-15T00:09:29;95887.75;;;4.28;100.00
8366;BME280;4220;42.502;24.188;2022-11-15T00:11:56;95881.69;;;4.28;100.00
8366;BME280;4220;42.502;24.188;2022-11-15T00:14:23;95876.94;;;4.31;100.00
8366;BME280;4220;42.502;24.188;2022-11-15T00:16:50;95869.06;;;4.31;100.00
8366;BME280;4220;42.502;24.188;2022-11-15T00:19:16;95871.84;;;4.22;100.00
8366;BME280;4220;42.502;24.188;2022-11-15T00:21:45;95866.09;;;4.18;100.00
8366;BME280;4220;42.502;24.188;2022-11-15T00:24:11;95877.09;;;4.22;100.00
8366;BME280;4220;42.502;24.188;2022-11-15T00:26:38;95865.75;;;4.13;100.00
8366;BME280;4220;42.502;24.188;2022-11-15T00:29:05;95868.38;;;4.13;100.00
8366;BME280;4220;42.502;24.188;2022-11-15T00:31:32;95860.84;;;4.10;100.00
8366;BME280;4220;42.502;24.188;2022-11-15T00:33:59;95863.13;;;3.97;100.00
8366;BME280;4220;42.502;24.188;2022-11-15T00:36:26;95865.91;;;3.95;100.00
8366;BME280;4220;42.502;24.188;2022-11-15T00:38:54;95856.56;;;4.01;100.00
8366;BME280;4220;42.502;24.188;2022-11-15T00:41:21;95861.19;;;4.15;100.00
8366;BME280;4220;42.502;24.188;2022-11-15T00:43:47;95853.63;;;4.04;100.00
8366;BME280;4220;42.502;24.188;2022-11-15T00:46:14;95851.97;;;4.03;100.00
8366;BME280;4220;42.502;24.188;2022-11-15T00:48:41;95850.78;;;3.73;100.00
8366;BME280;4220;42.502;24.188;2022-11-15T00:51:08;95840.75;;;3.69;100.00
8366;BME280;4220;42.502;24.188;2022-11-15T00:53:35;95840.16;;;3.83;100.00
8366;BME280;4220;42.502;24.188;2022-11-15T00:56:03;95850.31;;;3.94;100.00
8366;BME280;4220;42.502;24.188;2022-11-15T00:58:30;95840.81;;;3.93;100.00
8366;BME280;4220;42.502;24.188;2022-11-15T01:01:05;95828.84;;;4.07;100.00
8366;BME280;4220;42.502;24.188;2022-11-15T01:03:32;95838.53;;;4.22;100.00
8366;BME280;4220;42.502;24.188;2022-11-15T01:05:59;95820.16;;;4.06;100.00
8366;BME280;4220;42.502;24.188;2022-11-15T01:08:26;95841.81;;;4.24;100.00
8366;BME280;4220;42.502;24.188;2022-11-15T01:10:53;95845.09;;;4.34;100.00
8366;BME280;4220;42.502;24.188;2022-11-15T01:13:21;95832.94;;;4.41;100.00
8366;BME280;4220;42.502;24.188;2022-11-15T01:15:48;95840.31;;;4.54;100.00
8366;BME280;4220;42.502;24.188;2022-11-15T01:18:15;95843.41;;;4.66;100.00
8366;BME280;4220;42.502;24.188;2022-11-15T01:20:42;95839.97;;;4.73;100.00
8366;BME280;4220;42.502;24.188;2022-11-15T01:23:09;95842.25;;;4.76;100.00
8366;BME280;4220;42.502;24.188;2022-11-15T01:25:35;95834.84;;;4.80;100.00
8366;BME280;4220;42.502;24.188;2022-11-15T01:28:02;95833.69;;;4.82;100.00
8366;BME280;4220;42.502;24.188;2022-11-15T01:30:31;95828.13;;;4.77;100.00
8366;BME280;4220;42.502;24.188;2022-11-15T01:32:57;95827.97;;;4.79;100.00
8366;BME280;4220;42.502;24.188;2022-11-15T01:35:24;95839.13;;;4.89;100.00
8366;BME280;4220;42.502;24.188;2022-11-15T01:37:51;95790.56;;;4.60;100.00
8366;BME280;4220;42.502;24.188;2022-11-15T01:40:18;95837.16;;;4.75;100.00
8366;BME280;4220;42.502;24.188;2022-11-15T01:42:45;95837.78;;;4.85;100.00
8366;BME280;4220;42.502;24.188;2022-11-15T01:45:14;95824.97;;;4.90;100.00
8366;BME280;4220;42.502;24.188;2022-11-15T01:47:45;95836.28;;;4.98;100.00
8366;BME280;4220;42.502;24.188;2022-11-15T01:50:17;95830.53;;;5.03;100.00
8366;BME280;4220;42.502;24.188;2022-11-15T01:52:46;95835.09;;;5.09;100.00
8366;BME280;4220;42.502;24.188;2022-11-15T01:55:16;95831.66;;;5.08;100.00
8366;BME280;4220;42.502;24.188;2022-11-15T01:57:47;95835.09;;;5.09;100.00
8366;BME280;4220;42.502;24.188;2022-11-15T02:00:15;95835.41;;;5.14;100.00
8366;BME280;4220;42.502;24.188;2022-11-15T02:02:44;95829.69;;;5.10;100.00
8366;BME280;4220;42.502;24.188;2022-11-15T02:05:11;95823.94;;;5.07;100.00
8366;BME280;4220;42.502;24.188;2022-11-15T02:07:37;95828.31;;;5.22;100.00
8366;BME280;4220;42.502;24.188;2022-11-15T02:10:08;95834.03;;;5.26;100.00
8366;BME280;4220;42.502;24.188;2022-11-15T02:12:36;95838.00;;;5.30;100.00
8366;BME280;4220;42.502;24.188;2022-11-15T02:15:04;95824.31;;;5.35;100.00
8366;BME280;4220;42.502;24.188;2022-11-15T02:17:55;95819.19;;;5.41;100.00
8366;BME280;4220;42.502;24.188;2022-11-15T02:20:42;95816.19;;;5.52;100.00
8366;BME280;4220;42.502;24.188;2022-11-15T02:23:37;95814.31;;;5.61;100.00
8366;BME280;4220;42.502;24.188;2022-11-15T02:26:28;95813.88;;;5.57;100.00
8366;BME280;4220;42.502;24.188;2022-11-15T02:29:03;95822.06;;;5.62;100.00
8366;BME280;4220;42.502;24.188;2022-11-15T02:31:41;95813.34;;;5.62;100.00
8366;BME280;4220;42.502;24.188;2022-11-15T02:34:17;95819.84;;;5.74;100.00
8366;BME280;4220;42.502;24.188;2022-11-15T02:36:53;95817.50;;;5.79;100.00
8366;BME280;4220;42.502;24.188;2022-11-15T02:39:28;95811.72;;;5.83;100.00
8366;BME280;4220;42.502;24.188;2022-11-15T02:42:02;95811.91;;;5.82;100.00
8366;BME280;4220;42.502;24.188;2022-11-15T02:44:51;95815.66;;;5.87;100.00
8366;BME280;4220;42.502;24.188;2022-11-15T02:47:20;95779.38;;;5.75;100.00
8366;BME280;4220;42.502;24.188;2022-11-15T02:49:51;95809.41;;;5.88;100.00
8366;BME280;4220;42.502;24.188;2022-11-15T02:52:21;95816.97;;;5.83;100.00
8366;BME280;4220;42.502;24.188;2022-11-15T02:54:53;95814.41;;;5.75;100.00
8366;BME280;4220;42.502;24.188;2022-11-15T02:57:33;95810.81;;;5.68;100.00
8366;BME280;4220;42.502;24.188;2022-11-15T03:00:06;95811.13;;;5.73;100.00
8366;BME280;4220;42.502;24.188;2022-11-15T03:05:31;95805.22;;;5.71;100.00
8366;BME280;4220;42.502;24.188;2022-11-15T03:08:06;95808.44;;;5.81;100.00
8366;BME280;4220;42.502;24.188;2022-11-15T03:10:42;95813.53;;;5.83;100.00
8366;BME280;4220;42.502;24.188;2022-11-15T03:13:21;95811.72;;;5.91;100.00
8366;BME280;4220;42.502;24.188;2022-11-15T03:15:57;95812.09;;;6.03;100.00
8366;BME280;4220;42.502;24.188;2022-11-15T03:18:32;95799.78;;;6.04;100.00
8366;BME280;4220;42.502;24.188;2022-11-15T03:21:01;95781.03;;;5.99;100.00
8366;BME280;4220;42.502;24.188;2022-11-15T03:23:30;95809.63;;;6.24;100.00
8366;BME280;4220;42.502;24.188;2022-11-15T03:25:59;95810.75;;;6.30;100.00
8366;BME280;4220;42.502;24.188;2022-11-15T03:28:31;95800.97;;;6.38;100.00
8366;BME280;4220;42.502;24.188;2022-11-15T03:31:01;95800.44;;;6.43;100.00
8366;BME280;4220;42.502;24.188;2022-11-15T03:33:52;95782.97;;;6.42;100.00
8366;BME280;4220;42.502;24.188;2022-11-15T03:36:22;95782.09;;;6.49;100.00
8366;BME280;4220;42.502;24.188;2022-11-15T03:38:52;95771.00;;;6.54;100.00
8366;BME280;4220;42.502;24.188;2022-11-15T03:41:23;95782.09;;;6.64;100.00
8366;BME280;4220;42.502;24.188;2022-11-15T03:43:56;95743.44;;;6.42;100.00
8366;BME280;4220;42.502;24.188;2022-11-15T03:46:29;95775.56;;;6.60;100.00
8366;BME280;4220;42.502;24.188;2022-11-15T03:49:04;95775.63;;;6.52;100.00
8366;BME280;4220;42.502;24.188;2022-11-15T03:51:33;95770.56;;;6.50;100.00
8366;BME280;4220;42.502;24.188;2022-11-15T03:54:02;95768.53;;;6.38;100.00
8366;BME280;4220;42.502;24.188;2022-11-15T03:56:30;95767.50;;;6.39;100.00
8366;BME280;4220;42.502;24.188;2022-11-15T03:58:56;95770.00;;;6.40;100.00
8366;BME280;4220;42.502;24.188;2022-11-15T04:01:23;95770.50;;;6.21;100.00
8366;BME280;4220;42.502;24.188;2022-11-15T04:03:50;95769.78;;;6.27;100.00
8366;BME280;4220;42.502;24.188;2022-11-15T04:06:18;95770.34;;;6.37;100.00
8366;BME280;4220;42.502;24.188;2022-11-15T04:08:45;95762.38;;;6.45;100.00
8366;BME280;4220;42.502;24.188;2022-11-15T04:11:12;95759.53;;;6.47;100.00
8366;BME280;4220;42.502;24.188;2022-11-15T04:13:39;95762.94;;;6.55;100.00
8366;BME280;4220;42.502;24.188;2022-11-15T04:16:06;95715.56;;;6.33;100.00
8366;BME280;4220;42.502;24.188;2022-11-15T04:18:33;95761.75;;;6.58;100.00
8366;BME280;4220;42.502;24.188;2022-11-15T04:20:59;95763.38;;;6.59;100.00
8366;BME280;4220;42.502;24.188;2022-11-15T04:23:45;95754.75;;;6.65;100.00
8366;BME280;4220;42.502;24.188;2022-11-15T04:26:25;95755.03;;;6.70;100.00
8366;BME280;4220;42.502;24.188;2022-11-15T04:28:52;95754.28;;;6.76;100.00
8366;BME280;4220;42.502;24.188;2022-11-15T04:31:36;95747.84;;;6.79;100.00
8366;BME280;4220;42.502;24.188;2022-11-15T04:34:03;95747.00;;;6.78;100.00
8366;BME280;4220;42.502;24.188;2022-11-15T04:36:29;95742.69;;;6.85;100.00
8366;BME280;4220;42.502;24.188;2022-11-15T04:39:15;95735.03;;;6.90;100.00
8366;BME280;4220;42.502;24.188;2022-11-15T04:41:42;95740.75;;;6.94;100.00
8366;BME280;4220;42.502;24.188;2022-11-15T04:44:08;95721.41;;;6.87;100.00
8366;BME280;4220;42.502;24.188;2022-11-15T04:46:36;95747.13;;;6.99;100.00
8366;BME280;4220;42.502;24.188;2022-11-15T04:49:02;95706.56;;;6.71;100.00
8366;BME280;4220;42.502;24.188;2022-11-15T04:51:29;95730.41;;;6.92;100.00
8366;BME280;4220;42.502;24.188;2022-11-15T04:53:56;95735.03;;;6.90;100.00
8366;BME280;4220;42.502;24.188;2022-11-15T04:56:24;95731.38;;;6.91;100.00
8366;BME280;4220;42.502;24.188;2022-11-15T04:58:51;95731.38;;;6.91;100.00
8366;BME280;4220;42.502;24.188;2022-11-15T05:01:18;95723.19;;;6.86;100.00
8366;BME280;4220;42.502;24.188;2022-11-15T05:03:45;95738.94;;;6.94;100.00
8366;BME280;4220;42.502;24.188;2022-11-15T05:06:29;95727.94;;;6.91;100.00
8366;BME280;4220;42.502;24.188;2022-11-15T05:08:57;95742.00;;;6.98;100.00
8366;BME280;4220;42.502;24.188;2022-11-15T05:11:25;95734.09;;;6.98;100.00
8366;BME280;4220;42.502;24.188;2022-11-15T05:13:52;95691.78;;;6.70;100.00
8366;BME280;4220;42.502;24.188;2022-11-15T05:16:19;95729.38;;;6.93;100.00
8366;BME280;4220;42.502;24.188;2022-11-15T05:18:46;95695.41;;;6.69;100.00
8366;BME280;4220;42.502;24.188;2022-11-15T05:21:14;95731.03;;;6.94;100.00
8366;BME280;4220;42.502;24.188;2022-11-15T05:23:41;95720.22;;;6.89;100.00
8366;BME280;4220;42.502;24.188;2022-11-15T05:26:09;95736.22;;;7.02;100.00
8366;BME280;4220;42.502;24.188;2022-11-15T05:28:37;95736.84;;;7.04;100.00
8366;BME280;4220;42.502;24.188;2022-11-15T05:31:06;95744.91;;;7.03;100.00
8366;BME280;4220;42.502;24.188;2022-11-15T05:33:33;95742.28;;;7.03;100.00
8366;BME280;4220;42.502;24.188;2022-11-15T05:36:04;95742.75;;;7.06;100.00
8366;BME280;4220;42.502;24.188;2022-11-15T05:38:32;95740.56;;;7.10;100.00
8366;BME280;4220;42.502;24.188;2022-11-15T05:40:59;95743.63;;;7.13;100.00
8366;BME280;4220;42.502;24.188;2022-11-15T05:43:27;95752.00;;;7.17;100.00
8366;BME280;4220;42.502;24.188;2022-11-15T05:45:57;95754.91;;;7.22;100.00
8366;BME280;4220;42.502;24.188;2022-11-15T05:48:26;95746.81;;;7.23;100.00
8366;BME280;4220;42.502;24.188;2022-11-15T05:50:53;95744.81;;;7.25;100.00
8366;BME280;4220;42.502;24.188;2022-11-15T05:53:21;95735.28;;;7.24;100.00
8366;BME280;4220;42.502;24.188;2022-11-15T05:55:49;95748.22;;;7.41;100.00
8366;BME280;4220;42.502;24.188;2022-11-15T05:58:17;95746.84;;;7.45;100.00
8366;BME280;4220;42.502;24.188;2022-11-15T06:00:44;95733.66;;;7.45;100.00
8366;BME280;4220;42.502;24.188;2022-11-15T06:03:13;95752.03;;;7.53;100.00
8366;BME280;4220;42.502;24.188;2022-11-15T06:05:40;95758.94;;;7.54;100.00
8366;BME280;4220;42.502;24.188;2022-11-15T06:08:07;95748.81;;;7.57;100.00
8366;BME280;4220;42.502;24.188;2022-11-15T06:10:33;95744.56;;;7.56;100.00
8366;BME280;4220;42.502;24.188;2022-11-15T06:13:02;95747.56;;;7.53;100.00
8366;BME280;4220;42.502;24.188;2022-11-15T06:15:29;95748.66;;;7.59;100.00
8366;BME280;4220;42.502;24.188;2022-11-15T06:17:56;95733.81;;;7.58;100.00
8366;BME280;4220;42.502;24.188;2022-11-15T06:20:25;95752.19;;;7.66;100.00
8366;BME280;4220;42.502;24.188;2022-11-15T06:22:56;95741.25;;;7.69;100.00
8366;BME280;4220;42.502;24.188;2022-11-15T06:25:23;95730.84;;;7.67;100.00
8366;BME280;4220;42.502;24.188;2022-11-15T06:27:51;95748.41;;;7.75;100.00
8366;BME280;4220;42.502;24.188;2022-11-15T06:30:18;95747.78;;;7.73;100.00
8366;BME280;4220;42.502;24.188;2022-11-15T06:32:45;95748.44;;;7.60;100.00
8366;BME280;4220;42.502;24.188;2022-11-15T06:35:12;95751.16;;;7.67;100.00
8366;BME280;4220;42.502;24.188;2022-11-15T06:37:41;95753.47;;;7.76;100.00
8366;BME280;4220;42.502;24.188;2022-11-15T06:40:10;95752.13;;;7.80;100.00
8366;BME280;4220;42.502;24.188;2022-11-15T06:42:37;95750.31;;;7.81;100.00
8366;BME280;4220;42.502;24.188;2022-11-15T06:45:04;95751.56;;;7.85;100.00
8366;BME280;4220;42.502;24.188;2022-11-15T06:47:31;95752.38;;;7.85;100.00
8366;BME280;4220;42.502;24.188;2022-11-15T06:49:58;95755.44;;;7.89;100.00
8366;BME280;4220;42.502;24.188;2022-11-15T06:52:25;95752.63;;;7.90;100.00
8366;BME280;4220;42.502;24.188;2022-11-15T06:54:53;95749.53;;;7.87;100.00
8366;BME280;4220;42.502;24.188;2022-11-15T06:57:20;95750.34;;;7.87;100.00
8366;BME280;4220;42.502;24.188;2022-11-15T06:59:47;95754.44;;;7.90;100.00
8366;BME280;4220;42.502;24.188;2022-11-15T07:02:13;95749.53;;;7.87;100.00
8366;BME280;4220;42.502;24.188;2022-11-15T07:04:40;95745.53;;;7.91;100.00
8366;BME280;4220;42.502;24.188;2022-11-15T07:07:07;95752.06;;;7.95;100.00
8366;BME280;4220;42.502;24.188;2022-11-15T07:09:34;95752.09;;;8.02;100.00
8366;BME280;4220;42.502;24.188;2022-11-15T07:12:02;95748.91;;;8.06;100.00
8366;BME280;4220;42.502;24.188;2022-11-15T07:14:29;95729.38;;;8.01;100.00
8366;BME280;4220;42.502;24.188;2022-11-15T07:16:56;95751.03;;;8.17;100.00
8366;BME280;4220;42.502;24.188;2022-11-15T07:19:23;95740.47;;;8.17;100.00
8366;BME280;4220;42.502;24.188;2022-11-15T07:21:50;95748.72;;;8.29;100.00
8366;BME280;4220;42.502;24.188;2022-11-15T07:24:16;95752.22;;;8.36;100.00
8366;BME280;4220;42.502;24.188;2022-11-15T07:26:43;95747.03;;;8.42;100.00
8366;BME280;4220;42.502;24.188;2022-11-15T07:29:11;95749.91;;;8.47;100.00
8366;BME280;4220;42.502;24.188;2022-11-15T07:31:38;95746.84;;;8.50;100.00
8366;BME280;4220;42.502;24.188;2022-11-15T07:34:05;95743.84;;;8.53;100.00
8366;BME280;4220;42.502;24.188;2022-11-15T07:36:32;95745.72;;;8.60;100.00
8366;BME280;4220;42.502;24.188;2022-11-15T07:38:59;95750.59;;;8.63;100.00
8366;BME280;4220;42.502;24.188;2022-11-15T07:41:26;95742.28;;;8.38;100.00
8366;BME280;4220;42.502;24.188;2022-11-15T07:43:52;95743.44;;;8.29;100.00
8366;BME280;4220;42.502;24.188;2022-11-15T07:46:21;95742.44;;;8.30;100.00
8366;BME280;4220;42.502;24.188;2022-11-15T07:48:47;95746.75;;;8.16;100.00
8366;BME280;4220;42.502;24.188;2022-11-15T07:51:15;95739.53;;;8.25;100.00
8366;BME280;4220;42.502;24.188;2022-11-15T07:53:43;95738.16;;;8.29;100.00
8366;BME280;4220;42.502;24.188;2022-11-15T07:56:10;95737.06;;;8.23;100.00
8366;BME280;4220;42.502;24.188;2022-11-15T07:58:37;95749.28;;;8.24;100.00
8366;BME280;4220;42.502;24.188;2022-11-15T08:01:04;95748.16;;;8.12;100.00
8366;BME280;4220;42.502;24.188;2022-11-15T08:03:32;95749.16;;;8.11;100.00
8366;BME280;4220;42.502;24.188;2022-11-15T08:05:59;95728.91;;;7.97;100.00
8366;BME280;4220;42.502;24.188;2022-11-15T08:08:26;95739.53;;;8.04;100.00
8366;BME280;4220;42.502;24.188;2022-11-15T08:10:53;95741.03;;;8.13;100.00
8366;BME280;4220;42.502;24.188;2022-11-15T08:13:20;95743.00;;;8.25;100.00
8366;BME280;4220;42.502;24.188;2022-11-15T08:15:47;95730.22;;;8.29;100.00
8366;BME280;4220;42.502;24.188;2022-11-15T08:18:15;95743.78;;;8.47;100.00
8366;BME280;4220;42.502;24.188;2022-11-15T08:20:44;95748.91;;;8.55;100.00
8366;BME280;4220;42.502;24.188;2022-11-15T08:23:11;95737.97;;;8.58;100.00
8366;BME280;4220;42.502;24.188;2022-11-15T08:25:38;95742.91;;;8.68;100.00
8366;BME280;4220;42.502;24.188;2022-11-15T08:28:07;95747.84;;;8.77;100.00
8366;BME280;4220;42.502;24.188;2022-11-15T08:30:35;95746.88;;;8.85;100.00
8366;BME280;4220;42.502;24.188;2022-11-15T08:33:03;95743.22;;;8.86;100.00
8366;BME280;4220;42.502;24.188;2022-11-15T08:35:30;95724.25;;;8.76;100.00
8366;BME280;4220;42.502;24.188;2022-11-15T08:37:58;95742.66;;;8.90;100.00
8366;BME280;4220;42.502;24.188;2022-11-15T08:40:26;95743.25;;;8.92;100.00
8366;BME280;4220;42.502;24.188;2022-11-15T08:42:53;95742.66;;;8.97;100.00
8366;BME280;4220;42.502;24.188;2022-11-15T08:45:20;95732.97;;;9.04;100.00
8366;BME280;4220;42.502;24.188;2022-11-15T08:47:47;95739.94;;;9.11;100.00
8366;BME280;4220;42.502;24.188;2022-11-15T08:50:14;95744.03;;;9.20;100.00
8366;BME280;4220;42.502;24.188;2022-11-15T08:52:41;95727.72;;;9.17;100.00
8366;BME280;4220;42.502;24.188;2022-11-15T08:55:09;95720.81;;;9.16;100.00
8366;BME280;4220;42.502;24.188;2022-11-15T08:57:36;95728.78;;;9.29;100.00
8366;BME280;4220;42.502;24.188;2022-11-15T09:00:04;95717.81;;;9.32;100.00
8366;BME280;4220;42.502;24.188;2022-11-15T09:02:31;95724.31;;;9.36;100.00
8366;BME280;4220;42.502;24.188;2022-11-15T09:04:58;95722.53;;;9.43;100.00
8366;BME280;4220;42.502;24.188;2022-11-15T09:07:24;95711.13;;;9.49;100.00
8366;BME280;4220;42.502;24.188;2022-11-15T09:09:51;95710.56;;;9.60;100.00
8366;BME280;4220;42.502;24.188;2022-11-15T09:12:19;95696.72;;;9.65;100.00
8366;BME280;4220;42.502;24.188;2022-11-15T09:14:46;95692.88;;;9.74;100.00
8366;BME280;4220;42.502;24.188;2022-11-15T09:17:13;95692.47;;;9.83;100.00
8366;BME280;4220;42.502;24.188;2022-11-15T09:19:40;95694.53;;;9.95;100.00
8366;BME280;4220;42.502;24.188;2022-11-15T09:22:07;95696.97;;;10.03;100.00
8366;BME280;4220;42.502;24.188;2022-11-15T09:24:34;95682.69;;;9.91;100.00
8366;BME280;4220;42.502;24.188;2022-11-15T09:27:01;95689.03;;;9.90;100.00
8366;BME280;4220;42.502;24.188;2022-11-15T09:29:29;95691.44;;;9.71;100.00
8366;BME280;4220;42.502;24.188;2022-11-15T09:31:56;95684.31;;;9.72;100.00
8366;BME280;4220;42.502;24.188;2022-11-15T09:34:23;95683.09;;;9.81;100.00
8366;BME280;4220;42.502;24.188;2022-11-15T09:36:49;95637.84;;;9.50;100.00
8366;BME280;4220;42.502;24.188;2022-11-15T09:39:16;95631.22;;;9.06;100.00
8366;BME280;4220;42.502;24.188;2022-11-15T09:42:07;95682.19;;;9.41;100.00
8366;BME280;4220;42.502;24.188;2022-11-15T09:44:46;95670.59;;;9.42;100.00
8366;BME280;4220;42.502;24.188;2022-11-15T09:47:44;95669.59;;;9.43;100.00
8366;BME280;4220;42.502;24.188;2022-11-15T09:50:16;95676.13;;;9.54;100.00
8366;BME280;4220;42.502;24.188;2022-11-15T09:52:45;95670.03;;;9.60;100.00
8366;BME280;4220;42.502;24.188;2022-11-15T09:55:13;95626.16;;;9.18;100.00
8366;BME280;4220;42.502;24.188;2022-11-15T09:58:00;95660.44;;;9.52;100.00
8366;BME280;4220;42.502;24.188;2022-11-15T10:00:35;95665.13;;;9.63;100.00
8366;BME280;4220;42.502;24.188;2022-11-15T10:03:10;95653.13;;;9.67;100.00
8366;BME280;4220;42.502;24.188;2022-11-15T10:05:40;95647.44;;;9.70;100.00
8366;BME280;4220;42.502;24.188;2022-11-15T10:10:59;95650.28;;;9.75;100.00
8366;BME280;4220;42.502;24.188;2022-11-15T10:13:30;95639.31;;;9.85;100.00
8366;BME280;4220;42.502;24.188;2022-11-15T10:16:04;95637.03;;;9.95;100.00
8366;BME280;4220;42.502;24.188;2022-11-15T10:18:44;95640.91;;;9.66;100.00
8366;BME280;4220;42.502;24.188;2022-11-15T10:21:18;95596.69;;;9.41;100.00
8366;BME280;4220;42.502;24.188;2022-11-15T10:23:46;95588.97;;;9.46;100.00
8366;BME280;4220;42.502;24.188;2022-11-15T10:26:16;95627.06;;;9.84;100.00
8366;BME280;4220;42.502;24.188;2022-11-15T10:28:43;95615.84;;;9.75;100.00
8366;BME280;4220;42.502;24.188;2022-11-15T10:31:23;95619.50;;;9.61;100.00
8366;BME280;4220;42.502;24.188;2022-11-15T10:33:51;95570.22;;;9.41;100.00
8366;BME280;4220;42.502;24.188;2022-11-15T10:36:23;95605.47;;;9.67;100.00
8366;BME280;4220;42.502;24.188;2022-11-15T10:38:53;95603.81;;;9.66;100.00
8366;BME280;4220;42.502;24.188;2022-11-15T10:41:22;95597.94;;;9.77;100.00
8366;BME280;4220;42.502;24.188;2022-11-15T10:44:09;95595.88;;;9.86;100.00
8366;BME280;4220;42.502;24.188;2022-11-15T10:46:40;95589.56;;;9.87;100.00
8366;BME280;4220;42.502;24.188;2022-11-15T10:49:13;95584.25;;;10.00;100.00
8366;BME280;4220;42.502;24.188;2022-11-15T10:51:42;95588.31;;;10.22;100.00
8366;BME280;4220;42.502;24.188;2022-11-15T10:54:12;95588.09;;;10.37;100.00
8366;BME280;4220;42.502;24.188;2022-11-15T10:56:42;95584.59;;;10.56;100.00
8366;BME280;4220;42.502;24.188;2022-11-15T10:59:17;95583.28;;;10.72;100.00
8366;BME280;4220;42.502;24.188;2022-11-15T11:01:48;95572.88;;;10.77;100.00
8366;BME280;4220;42.502;24.188;2022-11-15T11:04:15;95575.28;;;10.85;100.00
8366;BME280;4220;42.502;24.188;2022-11-15T11:06:50;95573.13;;;11.06;100.00
8366;BME280;4220;42.502;24.188;2022-11-15T11:09:30;95577.97;;;11.23;100.00
8366;BME280;4220;42.502;24.188;2022-11-15T11:11:59;95566.88;;;11.32;100.00
8366;BME280;4220;42.502;24.188;2022-11-15T11:14:28;95568.41;;;11.46;100.00
8366;BME280;4220;42.502;24.188;2022-11-15T11:17:03;95574.19;;;11.68;100.00
8366;BME280;4220;42.502;24.188;2022-11-15T11:19:40;95565.25;;;11.87;100.00
8366;BME280;4220;42.502;24.188;2022-11-15T11:22:18;95563.78;;;12.16;100.00
8366;BME280;4220;42.502;24.188;2022-11-15T11:24:54;95546.22;;;12.33;100.00
8366;BME280;4220;42.502;24.188;2022-11-15T11:27:33;95551.28;;;12.71;100.00
8366;BME280;4220;42.502;24.188;2022-11-15T11:30:08;95514.59;;;12.91;100.00
8366;BME280;4220;42.502;24.188;2022-11-15T11:33:00;95533.81;;;13.11;100.00
8366;BME280;4220;42.502;24.188;2022-11-15T11:35:35;95527.34;;;12.71;100.00
8366;BME280;4220;42.502;24.188;2022-11-15T11:38:17;95528.50;;;12.02;100.00
8366;BME280;4220;42.502;24.188;2022-11-15T11:40:59;95520.69;;;12.07;100.00
8366;BME280;4220;42.502;24.188;2022-11-15T11:43:34;95445.66;;;11.62;100.00
8366;BME280;4220;42.502;24.188;2022-11-15T11:46:13;95512.38;;;12.40;100.00
8366;BME280;4220;42.502;24.188;2022-11-15T11:48:48;95501.50;;;12.60;100.00
8366;BME280;4220;42.502;24.188;2022-11-15T11:51:21;95498.16;;;12.64;100.00
8366;BME280;4220;42.502;24.188;2022-11-15T11:53:52;95503.38;;;13.07;100.00
8366;BME280;4220;42.502;24.188;2022-11-15T11:56:27;95502.69;;;13.64;100.00
8366;BME280;4220;42.502;24.188;2022-11-15T11:58:57;95504.88;;;13.91;98.33
8366;BME280;4220;42.502;24.188;2022-11-15T12:01:31;95493.16;;;14.26;97.06
8366;BME280;4220;42.502;24.188;2022-11-15T12:04:09;95498.22;;;14.63;95.83
8366;BME280;4220;42.502;24.188;2022-11-15T12:06:42;95492.25;;;14.84;94.59
8366;BME280;4220;42.502;24.188;2022-11-15T12:09:16;95486.06;;;14.95;94.36
8366;BME280;4220;42.502;24.188;2022-11-15T12:11:54;95446.94;;;14.61;93.99
8366;BME280;4220;42.502;24.188;2022-11-15T12:14:29;95481.63;;;15.00;93.94
8366;BME280;4220;42.502;24.188;2022-11-15T12:16:58;95479.41;;;15.26;93.18
8366;BME280;4220;42.502;24.188;2022-11-15T12:19:28;95475.19;;;15.30;91.50
8366;BME280;4220;42.502;24.188;2022-11-15T12:22:00;95476.06;;;15.19;91.44
8366;BME280;4220;42.502;24.188;2022-11-15T12:24:34;95476.66;;;15.21;90.86
8366;BME280;4220;42.502;24.188;2022-11-15T12:27:06;95473.69;;;14.77;92.93
8366;BME280;4220;42.502;24.188;2022-11-15T12:29:38;95467.78;;;15.03;91.96
8366;BME280;4220;42.502;24.188;2022-11-15T12:32:29;95468.66;;;15.37;90.99
8366;BME280;4220;42.502;24.188;2022-11-15T12:35:00;95463.50;;;15.64;89.68
8366;BME280;4220;42.502;24.188;2022-11-15T12:37:47;95466.91;;;15.76;89.25
8366;BME280;4220;42.502;24.188;2022-11-15T12:40:21;95431.16;;;15.65;88.36
8366;BME280;4220;42.502;24.188;2022-11-15T12:45:47;95434.63;;;15.33;89.58
8366;BME280;4220;42.502;24.188;2022-11-15T12:57:47;95440.28;;;15.20;89.90
8366;BME280;4220;42.502;24.188;2022-11-15T13:00:38;95441.22;;;15.14;90.16
8366;BME280;4220;42.502;24.188;2022-11-15T13:03:24;95439.09;;;15.27;90.28
8366;BME280;4220;42.502;24.188;2022-11-15T13:08:55;95439.66;;;15.29;90.10
8366;BME280;4220;42.502;24.188;2022-11-15T13:11:50;95436.88;;;15.07;90.42
8366;BME280;4220;42.502;24.188;2022-11-15T13:14:42;95429.59;;;15.03;90.64
8366;BME280;4220;42.502;24.188;2022-11-15T13:17:31;95425.84;;;15.49;89.35
8366;BME280;4220;42.502;24.188;2022-11-15T13:22:43;95427.44;;;16.21;86.92
8366;BME280;4220;42.502;24.188;2022-11-15T13:28:27;95414.75;;;16.55;84.87
8366;BME280;4220;42.502;24.188;2022-11-15T13:30:58;95416.53;;;16.71;84.74
8366;BME280;4220;42.502;24.188;2022-11-15T13:33:29;95410.09;;;16.94;84.05
8366;BME280;4220;42.502;24.188;2022-11-15T13:35:59;95403.22;;;17.03;83.40
8366;BME280;4220;42.502;24.188;2022-11-15T13:38:29;95412.88;;;17.04;83.30
8366;BME280;4220;42.502;24.188;2022-11-15T13:40:59;95405.53;;;16.94;83.37
8366;BME280;4220;42.502;24.188;2022-11-15T13:43:36;95414.34;;;16.90;83.43
8366;BME280;4220;42.502;24.188;2022-11-15T13:46:05;95401.59;;;16.75;83.76
8366;BME280;4220;42.502;24.188;2022-11-15T13:48:32;95404.53;;;16.52;84.57
8366;BME280;4220;42.502;24.188;2022-11-15T13:51:00;95404.34;;;16.15;85.08
8366;BME280;4220;42.502;24.188;2022-11-15T13:53:30;95393.28;;;15.90;85.77
8366;BME280;4220;42.502;24.188;2022-11-15T13:56:00;95405.81;;;15.85;86.73